createdAt,value
2019-02-08T15:53:03.831Z,7.25
2019-02-08T15:54:05.453Z,7.24
2019-02-08T15:55:58.330Z,7.28
2019-02-08T15:56:58.357Z,7.23
2019-02-08T15:58:51.385Z,7.23
2019-02-08T15:59:50.993Z,7.21
2019-02-08T16:00:51.197Z,7.28
2019-02-08T16:01:50.472Z,7.28
2019-02-08T16:02:50.568Z,7.37
2019-02-08T16:03:50.337Z,7.45
2019-02-08T16:04:50.985Z,7.39
2019-02-08T16:05:51.148Z,7.34
2019-02-08T16:06:50.410Z,7.35
2019-02-08T16:07:48.886Z,7.17
2019-02-08T16:08:48.883Z,7.30
2019-02-08T16:09:48.824Z,7.30
2019-02-08T16:10:48.712Z,7.12
2019-02-08T16:11:48.689Z,7.09
2019-02-08T16:12:48.646Z,7.10
2019-02-08T16:13:48.601Z,7.06
2019-02-08T16:14:48.635Z,7.16
2019-02-08T16:15:48.525Z,7.31
2019-02-08T16:16:48.507Z,7.28
2019-02-08T16:17:48.456Z,7.42
2019-02-08T16:18:48.460Z,7.40
2019-02-08T16:19:48.376Z,7.34
2019-02-08T16:20:48.402Z,7.32
2019-02-08T16:21:48.292Z,7.45
2019-02-08T16:22:48.258Z,7.48
2019-02-08T16:23:48.242Z,7.43
2019-02-08T16:24:48.171Z,7.40
2019-02-08T16:25:48.139Z,7.42
2019-02-08T16:26:48.114Z,7.37
2019-02-08T16:27:48.043Z,7.17
2019-02-08T16:28:48.090Z,7.20
2019-02-08T16:29:47.951Z,7.05
2019-02-08T16:30:47.965Z,7.07
2019-02-08T16:31:48.010Z,7.05
2019-02-08T16:32:47.875Z,6.92
2019-02-08T16:33:47.866Z,6.81
2019-02-08T16:34:47.784Z,6.76
2019-02-08T16:35:47.746Z,6.70
2019-02-08T16:36:47.713Z,6.62
2019-02-08T16:37:47.650Z,6.59
2019-02-08T16:38:47.668Z,6.56
2019-02-08T16:39:47.644Z,6.61
2019-02-08T16:40:47.524Z,6.55
2019-02-08T16:41:47.506Z,6.44
2019-02-08T16:42:47.440Z,6.41
2019-02-08T16:43:47.440Z,6.38
2019-02-08T16:44:47.406Z,6.37
2019-02-08T16:45:47.334Z,6.34
2019-02-08T16:46:47.312Z,6.43
2019-02-08T16:47:47.290Z,6.21
2019-02-08T16:48:47.366Z,6.03
2019-02-08T16:49:47.186Z,6.03
2019-02-08T16:50:47.189Z,6.03
2019-02-08T16:51:47.121Z,6.06
2019-02-08T16:52:47.055Z,6.09
2019-02-08T16:53:53.417Z,6.08
2019-02-08T16:54:47.217Z,6.17
2019-02-08T16:55:46.961Z,6.19
2019-02-08T16:56:46.922Z,6.19
2019-02-08T16:57:47.975Z,6.06
2019-02-08T16:58:46.832Z,6.18
2019-02-08T16:59:46.777Z,6.18
2019-02-08T17:00:46.743Z,6.17
2019-02-08T17:01:46.755Z,6.17
2019-02-08T17:02:46.684Z,6.27
2019-02-08T17:03:46.619Z,6.18
2019-02-08T17:04:46.601Z,6.12
2019-02-08T17:05:46.592Z,6.28
2019-02-08T17:06:46.543Z,6.46
2019-02-08T17:07:46.472Z,6.58
2019-02-08T17:08:46.423Z,6.64
2019-02-08T17:09:46.383Z,6.56
2019-02-08T17:10:46.353Z,6.48
2019-02-08T17:11:46.319Z,6.55
2019-02-08T17:12:46.381Z,6.46
2019-02-08T17:13:46.229Z,6.51
2019-02-08T17:14:46.195Z,6.54
2019-02-08T17:15:46.176Z,6.58
2019-02-08T17:16:46.220Z,6.54
2019-02-08T17:17:46.054Z,6.58
2019-02-08T17:18:46.026Z,6.43
2019-02-08T17:19:46.002Z,6.31
2019-02-08T17:20:45.954Z,6.34
2019-02-08T17:21:45.915Z,6.21
2019-02-08T17:22:45.877Z,6.11
2019-02-08T17:23:45.884Z,6.08
2019-02-08T17:24:45.791Z,6.04
2019-02-08T17:25:45.750Z,6.04
2019-02-08T17:26:45.702Z,6.03
2019-02-08T17:27:45.687Z,6.01
2019-02-08T17:28:45.629Z,5.89
2019-02-08T17:29:45.623Z,5.89
2019-02-08T17:30:45.576Z,6.04
2019-02-08T17:31:45.513Z,6.19
2019-02-08T17:32:45.476Z,6.25
2019-02-08T17:33:45.427Z,6.30
2019-02-08T17:34:45.406Z,6.34
2019-02-08T17:35:45.360Z,6.33
2019-02-08T17:36:45.306Z,6.28
2019-02-08T17:37:45.271Z,6.27
2019-02-08T17:38:45.252Z,6.25
2019-02-08T17:39:45.284Z,6.19
2019-02-08T17:40:45.260Z,6.21
2019-02-08T17:41:45.236Z,6.06
2019-02-08T17:42:45.080Z,5.94
2019-02-08T17:43:45.045Z,5.89
2019-02-08T17:44:44.995Z,5.91
2019-02-08T17:45:44.999Z,5.93
2019-02-08T17:46:44.911Z,6.18
2019-02-08T17:47:44.876Z,6.44
2019-02-08T17:48:44.839Z,6.58
2019-02-08T17:49:44.889Z,6.55
2019-02-08T17:50:44.756Z,6.56
2019-02-08T17:51:44.713Z,6.54
2019-02-08T17:52:44.674Z,6.55
2019-02-08T17:53:44.621Z,6.46
2019-02-08T17:54:44.594Z,6.51
2019-02-08T17:55:44.553Z,6.49
2019-02-08T17:56:45.035Z,6.51
2019-02-08T17:57:44.580Z,6.43
2019-02-08T17:58:44.451Z,6.55
2019-02-08T17:59:44.402Z,6.59
2019-02-08T18:00:44.379Z,6.64
2019-02-08T18:01:44.473Z,6.71
2019-02-08T18:02:44.292Z,6.66
2019-02-08T18:03:44.281Z,6.69
2019-02-08T18:04:44.283Z,6.55
2019-02-08T18:05:44.193Z,6.51
2019-02-08T18:06:44.128Z,6.44
2019-02-08T18:07:44.129Z,6.43
2019-02-08T18:08:44.052Z,6.31
2019-02-08T18:09:44.037Z,6.38
2019-02-08T18:10:43.951Z,6.37
2019-02-08T18:11:44.021Z,6.30
2019-02-08T18:12:43.885Z,6.46
2019-02-08T18:13:43.872Z,6.52
2019-02-08T18:14:43.801Z,6.51
2019-02-08T18:15:43.797Z,6.59
2019-02-08T18:16:43.838Z,6.56
2019-02-08T18:17:43.678Z,6.56
2019-02-08T18:18:43.644Z,6.51
2019-02-08T18:19:43.600Z,6.36
2019-02-08T18:20:43.596Z,6.46
2019-02-08T18:21:43.531Z,6.38
2019-02-08T18:22:43.485Z,6.38
2019-02-08T18:23:43.461Z,6.54
2019-02-08T18:24:43.410Z,6.44
2019-02-08T18:25:43.372Z,6.48
2019-02-08T18:26:43.346Z,6.41
2019-02-08T18:27:43.267Z,6.43
2019-02-08T18:28:43.251Z,6.48
2019-02-08T18:29:43.225Z,6.30
2019-02-08T18:30:43.180Z,6.38
2019-02-08T18:31:43.169Z,6.43
2019-02-08T18:32:43.090Z,6.31
2019-02-08T18:33:43.036Z,6.30
2019-02-08T18:34:43.025Z,6.48
2019-02-08T18:35:42.992Z,6.28
2019-02-08T18:36:42.941Z,6.36
2019-02-08T18:37:42.871Z,6.36
2019-02-08T18:38:42.820Z,6.21
2019-02-08T18:39:42.817Z,6.15
2019-02-08T18:40:42.777Z,6.14
2019-02-08T18:41:42.735Z,6.21
2019-02-08T18:42:42.799Z,6.25
2019-02-08T18:43:42.749Z,6.30
2019-02-08T18:44:42.602Z,6.40
2019-02-08T18:45:42.606Z,6.43
2019-02-08T18:46:42.520Z,6.36
2019-02-08T18:47:42.505Z,6.28
2019-02-08T18:48:42.459Z,6.36
2019-02-08T18:49:42.439Z,6.30
2019-02-08T18:50:42.405Z,6.22
2019-02-08T18:51:42.316Z,6.21
2019-02-08T18:52:42.340Z,6.25
2019-02-08T18:53:42.239Z,6.21
2019-02-08T18:54:42.211Z,6.28
2019-02-08T18:55:42.236Z,6.22
2019-02-08T18:56:42.170Z,6.22
2019-02-08T18:57:42.088Z,6.25
2019-02-08T18:58:42.028Z,6.27
2019-02-08T18:59:42.004Z,6.28
2019-02-08T19:00:41.973Z,6.28
2019-02-08T19:01:41.945Z,6.25
2019-02-08T19:02:41.913Z,6.34
2019-02-08T19:03:41.853Z,6.30
2019-02-08T19:04:41.790Z,6.21
2019-02-08T19:05:41.799Z,6.31
2019-02-08T19:06:41.704Z,6.33
2019-02-08T19:07:41.667Z,6.43
2019-02-08T19:08:41.643Z,6.33
2019-02-08T19:09:41.592Z,6.30
2019-02-08T19:10:41.578Z,6.31
2019-02-08T19:11:41.529Z,6.37
2019-02-08T19:12:41.533Z,6.34
2019-02-08T19:13:41.444Z,6.36
2019-02-08T19:14:41.432Z,6.31
2019-02-08T19:15:41.356Z,6.43
2019-02-08T19:16:41.574Z,6.43
2019-02-08T19:17:41.291Z,6.51
2019-02-08T19:18:41.259Z,6.43
2019-02-08T19:19:41.277Z,6.51
2019-02-08T19:20:41.147Z,6.33
2019-02-08T19:21:41.162Z,6.33
2019-02-08T19:22:41.065Z,6.31
2019-02-08T19:23:41.072Z,6.38
2019-02-08T19:24:41.127Z,6.37
2019-02-08T19:25:41.001Z,6.28
2019-02-08T19:26:40.927Z,6.27
2019-02-08T19:27:40.928Z,6.19
2019-02-08T19:28:40.839Z,6.38
2019-02-08T19:29:40.839Z,6.28
2019-02-08T19:30:40.796Z,6.30
2019-02-08T19:31:40.716Z,6.36
2019-02-08T19:32:40.740Z,6.40
2019-02-08T19:33:40.706Z,6.44
2019-02-08T19:34:40.701Z,6.44
2019-02-08T19:35:40.589Z,6.54
2019-02-08T19:36:40.607Z,6.55
2019-02-08T19:37:40.655Z,6.40
2019-02-08T19:38:40.445Z,6.51
2019-02-08T19:39:40.416Z,6.41
2019-02-08T19:40:40.371Z,6.31
2019-02-08T19:41:40.318Z,6.43
2019-02-08T19:42:40.333Z,6.28
2019-02-08T19:43:40.303Z,6.40
2019-02-08T19:44:40.172Z,6.44
2019-02-08T19:45:40.166Z,6.27
2019-02-08T19:46:40.095Z,6.28
2019-02-08T19:47:40.068Z,6.25
2019-02-08T19:48:40.052Z,6.33
2019-02-08T19:49:39.995Z,6.38
2019-02-08T19:50:39.947Z,6.34
2019-02-08T19:51:39.902Z,6.22
2019-02-08T19:52:39.958Z,6.18
2019-02-08T19:53:39.854Z,6.11
2019-02-08T19:54:39.856Z,6.04
2019-02-08T19:55:39.736Z,6.19
2019-02-08T19:56:39.701Z,6.33
2019-02-08T19:57:39.737Z,6.31
2019-02-08T19:58:39.637Z,6.22
2019-02-08T19:59:39.616Z,6.25
2019-02-08T20:00:39.570Z,6.34
2019-02-08T20:01:39.503Z,6.21
2019-02-08T20:02:39.546Z,6.36
2019-02-08T20:03:39.552Z,6.30
2019-02-08T20:04:39.423Z,6.28
2019-02-08T20:05:39.360Z,6.33
2019-02-08T20:06:39.352Z,6.36
2019-02-08T20:07:39.377Z,6.28
2019-02-08T20:08:39.201Z,6.37
2019-02-08T20:09:39.204Z,6.33
2019-02-08T20:10:39.174Z,6.22
2019-02-08T20:11:39.119Z,6.25
2019-02-08T20:12:39.145Z,6.38
2019-02-08T20:13:39.187Z,6.30
2019-02-08T20:14:39.601Z,6.38
2019-02-08T20:15:39.031Z,6.31
2019-02-08T20:16:38.923Z,6.28
2019-02-08T20:17:38.874Z,6.31
2019-02-08T20:18:38.839Z,6.44
2019-02-08T20:19:38.776Z,6.44
2019-02-08T20:20:38.904Z,6.43
2019-02-08T20:21:39.565Z,6.51
2019-02-08T20:22:38.823Z,6.51
2019-02-08T20:23:38.609Z,6.48
2019-02-08T20:24:38.639Z,6.38
2019-02-08T20:25:38.581Z,6.37
2019-02-08T20:26:38.503Z,6.31
2019-02-08T20:27:38.455Z,6.41
2019-02-08T20:28:42.373Z,6.48
2019-02-08T20:29:38.390Z,6.52
2019-02-08T20:30:38.341Z,6.54
2019-02-08T20:31:39.165Z,6.56
2019-02-08T20:32:38.258Z,6.61
2019-02-08T20:34:34.910Z,6.58
2019-02-08T20:35:32.960Z,6.66
2019-02-08T20:37:27.907Z,6.70
2019-02-08T20:38:27.588Z,6.77
2019-02-08T20:40:21.315Z,6.81
2019-02-08T20:41:20.712Z,6.66
2019-02-08T20:43:14.447Z,6.80
2019-02-08T20:44:12.603Z,6.73
2019-02-08T20:46:07.286Z,6.62
2019-02-08T20:47:05.541Z,6.66
2019-02-08T20:49:00.263Z,6.54
2019-02-08T20:49:58.287Z,6.61
2019-02-08T20:51:53.273Z,6.70
2019-02-08T20:52:51.852Z,6.73
2019-02-08T20:54:46.081Z,6.81
2019-02-08T20:55:44.608Z,6.77
2019-02-08T20:57:39.076Z,6.85
2019-02-08T20:58:37.273Z,6.62
2019-02-08T21:00:32.098Z,6.85
2019-02-08T21:01:32.042Z,6.84
2019-02-08T21:03:24.399Z,6.88
2019-02-08T21:04:23.161Z,6.81
2019-02-08T21:06:17.940Z,6.77
2019-02-08T21:07:17.994Z,6.74
2019-02-08T21:09:12.428Z,6.73
2019-02-08T21:10:10.727Z,6.67
2019-02-08T21:11:12.308Z,6.69
2019-02-08T21:12:10.356Z,6.71
2019-02-08T21:13:10.291Z,6.79
2019-02-08T21:14:10.145Z,6.87
2019-02-08T21:15:10.123Z,6.91
2019-02-08T21:16:10.067Z,7.05
2019-02-08T21:17:09.974Z,7.06
2019-02-08T21:18:09.946Z,7.10
2019-02-08T21:19:09.984Z,7.24
2019-02-08T21:20:09.872Z,7.13
2019-02-08T21:21:09.812Z,7.13
2019-02-08T21:22:09.814Z,7.10
2019-02-08T21:23:09.850Z,7.06
2019-02-08T21:24:09.712Z,6.98
2019-02-08T21:25:09.688Z,7.02
2019-02-08T21:26:09.668Z,7.07
2019-02-08T21:27:09.584Z,7.10
2019-02-08T21:28:09.551Z,7.21
2019-02-08T21:29:09.534Z,7.20
2019-02-08T21:30:09.468Z,7.28
2019-02-08T21:31:09.450Z,7.32
2019-02-08T21:32:09.396Z,7.45
2019-02-08T21:33:09.343Z,7.52
2019-02-08T21:34:09.296Z,7.55
2019-02-08T21:35:09.263Z,7.53
2019-02-08T21:36:09.219Z,7.53
2019-02-08T21:37:09.285Z,7.48
2019-02-08T21:38:10.075Z,7.48
2019-02-08T21:39:09.093Z,7.48
2019-02-08T21:40:09.087Z,7.43
2019-02-08T21:41:09.063Z,7.43
2019-02-08T21:42:09.071Z,7.55
2019-02-08T21:43:08.926Z,7.53
2019-02-08T21:44:08.920Z,7.49
2019-02-08T21:45:08.884Z,7.50
2019-02-08T21:46:08.825Z,7.48
2019-02-08T21:47:08.770Z,7.49
2019-02-08T21:48:08.775Z,7.46
2019-02-08T21:49:08.787Z,7.49
2019-02-08T21:50:08.646Z,7.50
2019-02-08T21:51:08.762Z,7.40
2019-02-08T21:52:08.610Z,7.39
2019-02-08T21:53:08.624Z,7.40
2019-02-08T21:54:08.490Z,7.43
2019-02-08T21:55:08.479Z,7.43
2019-02-08T21:56:08.404Z,7.45
2019-02-08T21:57:08.360Z,7.53
2019-02-08T21:58:08.347Z,7.43
2019-02-08T21:59:08.319Z,7.39
2019-02-08T22:00:08.267Z,7.46
2019-02-08T22:01:08.205Z,7.49
2019-02-08T22:02:08.176Z,7.52
2019-02-08T22:03:09.066Z,7.50
2019-02-08T22:04:08.115Z,7.53
2019-02-08T22:05:08.045Z,7.48
2019-02-08T22:06:08.062Z,7.52
2019-02-08T22:07:07.977Z,7.49
2019-02-08T22:08:07.956Z,7.57
2019-02-08T22:10:03.127Z,7.55
2019-02-08T22:11:00.993Z,7.61
2019-02-08T22:12:56.067Z,7.63
2019-02-08T22:13:56.078Z,7.49
2019-02-08T22:15:47.201Z,7.49
2019-02-08T22:16:47.280Z,7.63
2019-02-08T22:18:43.355Z,7.55
2019-02-08T22:19:41.728Z,7.40
2019-02-08T22:21:36.113Z,7.31
2019-02-08T22:22:34.768Z,7.34
2019-02-08T22:24:30.076Z,7.30
2019-02-08T22:25:27.893Z,7.39
2019-02-08T22:27:23.021Z,7.27
2019-02-08T22:28:22.270Z,7.28
2019-02-08T22:30:16.301Z,7.25
2019-02-08T22:31:17.290Z,7.25
2019-02-08T22:33:09.277Z,7.21
2019-02-08T22:34:08.539Z,7.27
2019-02-08T22:36:02.708Z,7.10
2019-02-08T22:37:01.260Z,7.10
2019-02-08T22:38:55.169Z,7.25
2019-02-08T22:39:54.308Z,7.31
2019-02-08T22:41:49.179Z,7.27
2019-02-08T22:42:49.161Z,7.32
2019-02-08T22:44:43.752Z,7.37
2019-02-08T22:45:43.679Z,7.39
2019-02-08T22:47:36.037Z,7.45
2019-02-08T22:48:36.295Z,7.43
2019-02-08T22:50:29.637Z,7.48
2019-02-08T22:51:27.645Z,7.42
2019-02-08T22:53:22.528Z,7.27
2019-02-08T22:54:22.121Z,7.24
2019-02-08T22:56:14.630Z,7.07
2019-02-08T22:57:15.442Z,7.24
2019-02-08T22:59:07.601Z,7.28
2019-02-08T23:00:06.730Z,7.21
2019-02-08T23:02:02.744Z,7.23
2019-02-08T23:04:57.804Z,7.17
2019-02-08T23:05:56.683Z,7.07
2019-02-08T23:07:50.758Z,7.15
2019-02-08T23:08:50.781Z,7.10
2019-02-08T23:10:43.362Z,7.15
2019-02-08T23:11:42.420Z,7.15
2019-02-08T23:13:36.335Z,7.16
2019-02-08T23:14:36.617Z,7.17
2019-02-08T23:16:31.222Z,7.39
2019-02-08T23:17:29.188Z,7.28
2019-02-08T23:19:23.864Z,7.24
2019-02-08T23:20:23.795Z,7.40
2019-02-08T23:22:16.754Z,7.46
2019-02-08T23:23:17.032Z,7.58
2019-02-08T23:25:10.044Z,7.52
2019-02-08T23:26:09.935Z,7.53
2019-02-08T23:28:03.251Z,7.49
2019-02-08T23:29:01.121Z,7.50
2019-02-08T23:30:57.593Z,7.49
2019-02-08T23:31:55.923Z,7.43
2019-02-08T23:33:50.533Z,7.31
2019-02-08T23:34:48.793Z,7.34
2019-02-08T23:36:42.668Z,7.20
2019-02-08T23:37:41.762Z,7.15
2019-02-08T23:39:36.514Z,7.09
2019-02-08T23:40:34.857Z,7.24
2019-02-08T23:42:29.203Z,7.23
2019-02-08T23:43:29.973Z,7.17
2019-02-08T23:45:26.300Z,7.20
2019-02-08T23:48:19.492Z,7.12
2019-02-08T23:49:17.746Z,7.15
2019-02-08T23:51:12.441Z,7.16
2019-02-08T23:52:10.563Z,7.07
2019-02-08T23:54:05.411Z,7.02
2019-02-08T23:55:03.637Z,6.91
2019-02-08T23:57:01.614Z,6.89
2019-02-08T23:58:01.664Z,6.94
2019-02-08T23:59:57.476Z,7.03
